sensor_id;sensor_type;location;lat;lon;timestamp;pressure;altitude;pressure_sealevel;temperature;humidity
79411;BME280;69635;50.964;6.948;2023-09-18T00:00:46;100298.22;;;21.05;100.00
79411;BME280;69635;50.964;6.948;2023-09-18T00:03:11;100289.84;;;21.11;100.00
79411;BME280;69635;50.964;6.948;2023-09-18T00:05:37;100288.16;;;21.08;100.00
79411;BME280;69635;50.964;6.948;2023-09-18T00:08:02;100282.06;;;21.05;100.00
79411;BME280;69635;50.964;6.948;2023-09-18T00:10:28;100280.19;;;21.07;100.00
79411;BME280;69635;50.964;6.948;2023-09-18T00:12:57;100272.13;;;21.07;100.00
79411;BME280;69635;50.964;6.948;2023-09-18T00:15:23;100275.09;;;21.01;100.00
79411;BME280;69635;50.964;6.948;2023-09-18T00:17:49;100281.59;;;20.97;100.00
79411;BME280;69635;50.964;6.948;2023-09-18T00:20:14;100268.19;;;20.95;100.00
79411;BME280;69635;50.964;6.948;2023-09-18T00:22:43;100266.63;;;20.91;100.00
79411;BME280;69635;50.964;6.948;2023-09-18T00:25:08;100271.94;;;20.93;100.00
79411;BME280;69635;50.964;6.948;2023-09-18T00:27:34;100263.16;;;20.89;100.00
79411;BME280;69635;50.964;6.948;2023-09-18T00:30:03;100256.00;;;20.88;100.00
79411;BME280;69635;50.964;6.948;2023-09-18T00:32:29;100254.44;;;20.84;100.00
79411;BME280;69635;50.964;6.948;2023-09-18T00:34:55;100247.22;;;20.85;100.00
79411;BME280;69635;50.964;6.948;2023-09-18T00:37:20;100241.06;;;20.83;100.00
79411;BME280;69635;50.964;6.948;2023-09-18T00:39:46;100241.16;;;20.81;100.00
79411;BME280;69635;50.964;6.948;2023-09-18T00:42:11;100235.69;;;20.83;100.00
79411;BME280;69635;50.964;6.948;2023-09-18T00:44:41;100232.84;;;20.86;100.00
79411;BME280;69635;50.964;6.948;2023-09-18T00:47:07;100222.91;;;20.88;100.00
79411;BME280;69635;50.964;6.948;2023-09-18T00:49:34;100224.78;;;20.86;100.00
79411;BME280;69635;50.964;6.948;2023-09-18T00:52:01;100224.78;;;20.86;100.00
79411;BME280;69635;50.964;6.948;2023-09-18T00:54:27;100214.97;;;20.85;100.00
79411;BME280;69635;50.964;6.948;2023-09-18T00:56:53;100217.44;;;20.89;100.00
79411;BME280;69635;50.964;6.948;2023-09-18T00:59:20;100220.22;;;20.88;100.00
79411;BME280;69635;50.964;6.948;2023-09-18T01:01:48;100222.91;;;20.88;100.00
79411;BME280;69635;50.964;6.948;2023-09-18T01:04:16;100223.75;;;20.88;100.00
79411;BME280;69635;50.964;6.948;2023-09-18T01:06:41;100227.47;;;20.86;100.00
79411;BME280;69635;50.964;6.948;2023-09-18T01:09:07;100232.06;;;20.84;100.00
79411;BME280;69635;50.964;6.948;2023-09-18T01:14:42;100213.88;;;20.89;100.00
79411;BME280;69635;50.964;6.948;2023-09-18T01:17:10;100204.88;;;20.90;100.00
79411;BME280;69635;50.964;6.948;2023-09-18T01:22:09;100193.31;;;20.88;100.00
79411;BME280;69635;50.964;6.948;2023-09-18T01:24:37;100200.25;;;20.92;100.00
79411;BME280;69635;50.964;6.948;2023-09-18T01:27:03;100194.97;;;20.90;100.00
79411;BME280;69635;50.964;6.948;2023-09-18T01:29:32;100181.50;;;20.90;100.00
79411;BME280;69635;50.964;6.948;2023-09-18T01:31:57;100189.34;;;20.95;100.00
79411;BME280;69635;50.964;6.948;2023-09-18T01:34:44;100185.78;;;20.94;100.00
79411;BME280;69635;50.964;6.948;2023-09-18T01:37:15;100178.03;;;20.88;100.00
79411;BME280;69635;50.964;6.948;2023-09-18T01:39:42;100186.03;;;20.90;100.00
79411;BME280;69635;50.964;6.948;2023-09-18T01:42:09;100187.69;;;20.92;100.00
79411;BME280;69635;50.964;6.948;2023-09-18T01:44:35;100173.31;;;20.93;100.00
79411;BME280;69635;50.964;6.948;2023-09-18T01:47:06;100175.81;;;20.96;100.00
79411;BME280;69635;50.964;6.948;2023-09-18T01:49:33;100173.00;;;20.99;100.00
79411;BME280;69635;50.964;6.948;2023-09-18T01:52:00;100155.97;;;20.99;100.00
79411;BME280;69635;50.964;6.948;2023-09-18T01:54:26;100150.59;;;20.99;100.00
79411;BME280;69635;50.964;6.948;2023-09-18T01:56:52;100151.53;;;20.98;100.00
79411;BME280;69635;50.964;6.948;2023-09-18T01:59:19;100155.06;;;21.00;100.00
79411;BME280;69635;50.964;6.948;2023-09-18T02:01:45;100142.59;;;20.97;100.00
79411;BME280;69635;50.964;6.948;2023-09-18T02:04:10;100141.44;;;21.03;100.00
79411;BME280;69635;50.964;6.948;2023-09-18T02:06:36;100140.56;;;21.02;100.00
79411;BME280;69635;50.964;6.948;2023-09-18T02:09:01;100137.81;;;21.04;100.00
79411;BME280;69635;50.964;6.948;2023-09-18T02:11:28;100134.25;;;21.03;100.00
79411;BME280;69635;50.964;6.948;2023-09-18T02:13:54;100127.88;;;21.04;100.00
79411;BME280;69635;50.964;6.948;2023-09-18T02:16:19;100116.81;;;21.10;100.00
79411;BME280;69635;50.964;6.948;2023-09-18T02:18:49;100147.19;;;21.13;100.00
79411;BME280;69635;50.964;6.948;2023-09-18T02:21:22;100156.91;;;21.15;100.00
79411;BME280;69635;50.964;6.948;2023-09-18T02:23:52;100159.59;;;21.15;100.00
79411;BME280;69635;50.964;6.948;2023-09-18T02:26:21;100174.88;;;21.15;100.00
79411;BME280;69635;50.964;6.948;2023-09-18T02:28:47;100166.94;;;21.11;100.00
79411;BME280;69635;50.964;6.948;2023-09-18T02:31:13;100165.50;;;21.06;100.00
79411;BME280;69635;50.964;6.948;2023-09-18T02:33:39;100158.53;;;21.02;100.00
79411;BME280;69635;50.964;6.948;2023-09-18T02:36:04;100150.38;;;21.03;100.00
79411;BME280;69635;50.964;6.948;2023-09-18T02:38:30;100138.03;;;20.99;100.00
79411;BME280;69635;50.964;6.948;2023-09-18T02:40:56;100142.84;;;20.93;100.00
79411;BME280;69635;50.964;6.948;2023-09-18T02:43:22;100134.75;;;20.77;100.00
79411;BME280;69635;50.964;6.948;2023-09-18T02:45:49;100134.34;;;20.68;100.00
79411;BME280;69635;50.964;6.948;2023-09-18T02:48:14;100126.94;;;20.56;100.00
79411;BME280;69635;50.964;6.948;2023-09-18T02:50:40;100128.50;;;20.43;100.00
79411;BME280;69635;50.964;6.948;2023-09-18T02:53:07;100125.28;;;20.36;100.00
79411;BME280;69635;50.964;6.948;2023-09-18T02:55:34;100121.16;;;20.29;100.00
79411;BME280;69635;50.964;6.948;2023-09-18T02:57:59;100105.97;;;20.28;100.00
79411;BME280;69635;50.964;6.948;2023-09-18T03:00:24;100097.91;;;20.28;100.00
79411;BME280;69635;50.964;6.948;2023-09-18T03:02:50;100086.75;;;20.19;100.00
79411;BME280;69635;50.964;6.948;2023-09-18T03:05:15;100088.88;;;20.12;100.00
79411;BME280;69635;50.964;6.948;2023-09-18T03:07:41;100086.34;;;20.09;100.00
79411;BME280;69635;50.964;6.948;2023-09-18T03:10:07;100082.69;;;20.10;100.00
79411;BME280;69635;50.964;6.948;2023-09-18T03:12:32;100096.22;;;20.08;100.00
79411;BME280;69635;50.964;6.948;2023-09-18T03:14:59;100079.22;;;20.08;100.00
79411;BME280;69635;50.964;6.948;2023-09-18T03:17:24;100091.72;;;20.09;100.00
79411;BME280;69635;50.964;6.948;2023-09-18T03:19:49;100091.72;;;20.09;100.00
79411;BME280;69635;50.964;6.948;2023-09-18T03:22:15;100065.97;;;20.05;100.00
79411;BME280;69635;50.964;6.948;2023-09-18T03:24:40;100074.25;;;20.00;100.00
79411;BME280;69635;50.964;6.948;2023-09-18T03:27:06;100112.03;;;20.15;100.00
79411;BME280;69635;50.964;6.948;2023-09-18T03:29:31;100134.19;;;20.20;100.00
79411;BME280;69635;50.964;6.948;2023-09-18T03:31:57;100141.66;;;20.13;100.00
79411;BME280;69635;50.964;6.948;2023-09-18T03:34:24;100144.47;;;20.10;100.00
79411;BME280;69635;50.964;6.948;2023-09-18T03:36:52;100151.97;;;20.03;100.00
79411;BME280;69635;50.964;6.948;2023-09-18T03:39:17;100141.06;;;20.06;100.00
79411;BME280;69635;50.964;6.948;2023-09-18T03:41:43;100133.09;;;20.05;100.00
79411;BME280;69635;50.964;6.948;2023-09-18T03:44:08;100132.53;;;19.98;100.00
79411;BME280;69635;50.964;6.948;2023-09-18T03:46:35;100121.16;;;19.93;100.00
79411;BME280;69635;50.964;6.948;2023-09-18T03:49:01;100120.91;;;19.98;100.00
79411;BME280;69635;50.964;6.948;2023-09-18T03:51:28;100108.28;;;20.00;100.00
79411;BME280;69635;50.964;6.948;2023-09-18T03:53:56;100101.88;;;20.02;100.00
79411;BME280;69635;50.964;6.948;2023-09-18T03:56:22;100095.41;;;20.06;100.00
79411;BME280;69635;50.964;6.948;2023-09-18T03:58:49;100077.59;;;20.05;100.00
79411;BME280;69635;50.964;6.948;2023-09-18T04:01:19;100075.59;;;20.09;100.00
79411;BME280;69635;50.964;6.948;2023-09-18T04:03:44;100082.69;;;20.10;100.00
79411;BME280;69635;50.964;6.948;2023-09-18T04:06:10;100091.72;;;20.09;100.00
79411;BME280;69635;50.964;6.948;2023-09-18T04:08:35;100097.22;;;20.06;100.00
79411;BME280;69635;50.964;6.948;2023-09-18T04:11:00;100098.09;;;20.06;100.00
79411;BME280;69635;50.964;6.948;2023-09-18T04:13:26;100092.44;;;20.13;100.00
79411;BME280;69635;50.964;6.948;2023-09-18T04:15:52;100078.78;;;20.17;100.00
79411;BME280;69635;50.964;6.948;2023-09-18T04:18:22;100063.31;;;20.22;100.00
79411;BME280;69635;50.964;6.948;2023-09-18T04:20:48;100065.97;;;20.22;100.00
79411;BME280;69635;50.964;6.948;2023-09-18T04:23:25;100071.44;;;20.21;100.00
79411;BME280;69635;50.964;6.948;2023-09-18T04:25:52;100072.50;;;20.18;100.00
79411;BME280;69635;50.964;6.948;2023-09-18T04:28:19;100072.91;;;20.09;100.00
79411;BME280;69635;50.964;6.948;2023-09-18T04:30:45;100085.72;;;20.04;100.00
79411;BME280;69635;50.964;6.948;2023-09-18T04:33:12;100087.53;;;20.03;100.00
79411;BME280;69635;50.964;6.948;2023-09-18T04:35:38;100076.00;;;20.01;100.00
79411;BME280;69635;50.964;6.948;2023-09-18T04:38:06;100078.59;;;20.03;100.00
79411;BME280;69635;50.964;6.948;2023-09-18T04:40:31;100077.41;;;20.08;100.00
79411;BME280;69635;50.964;6.948;2023-09-18T04:42:58;100070.38;;;20.06;100.00
79411;BME280;69635;50.964;6.948;2023-09-18T04:45:24;100069.53;;;20.05;100.00
79411;BME280;69635;50.964;6.948;2023-09-18T04:47:50;100069.75;;;20.01;100.00
79411;BME280;69635;50.964;6.948;2023-09-18T04:50:15;100074.41;;;19.97;100.00
79411;BME280;69635;50.964;6.948;2023-09-18T04:52:41;100067.22;;;19.98;100.00
79411;BME280;69635;50.964;6.948;2023-09-18T04:55:07;100074.66;;;19.93;100.00
79411;BME280;69635;50.964;6.948;2023-09-18T04:57:33;100074.78;;;19.90;100.00
79411;BME280;69635;50.964;6.948;2023-09-18T04:59:59;100081.91;;;19.91;100.00
79411;BME280;69635;50.964;6.948;2023-09-18T05:02:25;100097.06;;;19.92;100.00
79411;BME280;69635;50.964;6.948;2023-09-18T05:04:51;100081.91;;;19.91;100.00
79411;BME280;69635;50.964;6.948;2023-09-18T05:07:17;100071.88;;;19.94;100.00
79411;BME280;69635;50.964;6.948;2023-09-18T05:09:42;100085.47;;;19.91;100.00
79411;BME280;69635;50.964;6.948;2023-09-18T05:12:09;100099.97;;;19.87;100.00
79411;BME280;69635;50.964;6.948;2023-09-18T05:14:42;100072.50;;;19.82;100.00
79411;BME280;69635;50.964;6.948;2023-09-18T05:17:16;100081.41;;;19.83;100.00
79411;BME280;69635;50.964;6.948;2023-09-18T05:19:43;100087.81;;;19.80;100.00
79411;BME280;69635;50.964;6.948;2023-09-18T05:22:09;100098.75;;;19.76;100.00
79411;BME280;69635;50.964;6.948;2023-09-18T05:24:36;100115.66;;;19.78;100.00
79411;BME280;69635;50.964;6.948;2023-09-18T05:27:05;100081.34;;;19.84;100.00
79411;BME280;69635;50.964;6.948;2023-09-18T05:29:34;100066.00;;;19.86;100.00
79411;BME280;69635;50.964;6.948;2023-09-18T05:32:03;100076.53;;;19.91;100.00
79411;BME280;69635;50.964;6.948;2023-09-18T05:34:29;100088.19;;;19.90;100.00
79411;BME280;69635;50.964;6.948;2023-09-18T05:36:55;100108.03;;;19.87;100.00
79411;BME280;69635;50.964;6.948;2023-09-18T05:39:23;100123.97;;;19.90;100.00
79411;BME280;69635;50.964;6.948;2023-09-18T05:41:49;100127.63;;;19.89;100.00
79411;BME280;69635;50.964;6.948;2023-09-18T05:44:15;100127.28;;;19.95;100.00
79411;BME280;69635;50.964;6.948;2023-09-18T05:46:43;100151.41;;;19.97;100.00
79411;BME280;69635;50.964;6.948;2023-09-18T05:49:08;100135.84;;;20.03;100.00
79411;BME280;69635;50.964;6.948;2023-09-18T05:51:35;100123.31;;;20.04;100.00
79411;BME280;69635;50.964;6.948;2023-09-18T05:54:01;100124.06;;;20.06;100.00
79411;BME280;69635;50.964;6.948;2023-09-18T05:56:27;100123.22;;;20.05;100.00
79411;BME280;69635;50.964;6.948;2023-09-18T05:58:52;100131.03;;;20.10;100.00
79411;BME280;69635;50.964;6.948;2023-09-18T06:01:20;100124.56;;;20.14;100.00
79411;BME280;69635;50.964;6.948;2023-09-18T06:03:45;100126.31;;;20.15;100.00
79411;BME280;69635;50.964;6.948;2023-09-18T06:06:11;100113.03;;;20.12;100.00
79411;BME280;69635;50.964;6.948;2023-09-18T06:08:39;100113.13;;;20.10;100.00
79411;BME280;69635;50.964;6.948;2023-09-18T06:11:05;100125.38;;;20.16;100.00
79411;BME280;69635;50.964;6.948;2023-09-18T06:13:30;100123.53;;;20.18;100.00
79411;BME280;69635;50.964;6.948;2023-09-18T06:15:56;100126.75;;;20.25;100.00
79411;BME280;69635;50.964;6.948;2023-09-18T06:18:22;100125.19;;;20.38;100.00
79411;BME280;69635;50.964;6.948;2023-09-18T06:20:49;100116.78;;;20.44;100.00
79411;BME280;69635;50.964;6.948;2023-09-18T06:23:15;100108.44;;;20.50;100.00
79411;BME280;69635;50.964;6.948;2023-09-18T06:25:40;100091.19;;;20.54;100.00
79411;BME280;69635;50.964;6.948;2023-09-18T06:28:09;100085.56;;;20.58;100.00
79411;BME280;69635;50.964;6.948;2023-09-18T06:30:39;100088.13;;;20.61;100.00
79411;BME280;69635;50.964;6.948;2023-09-18T06:33:04;100089.66;;;20.65;100.00
79411;BME280;69635;50.964;6.948;2023-09-18T06:35:34;100097.31;;;20.73;100.00
79411;BME280;69635;50.964;6.948;2023-09-18T06:38:02;100095.03;;;20.82;100.00
79411;BME280;69635;50.964;6.948;2023-09-18T06:40:30;100095.13;;;20.81;100.00
79411;BME280;69635;50.964;6.948;2023-09-18T06:45:31;100090.88;;;20.92;100.00
79411;BME280;69635;50.964;6.948;2023-09-18T06:47:59;100086.22;;;20.96;100.00
79411;BME280;69635;50.964;6.948;2023-09-18T06:50:28;100084.47;;;20.95;100.00
79411;BME280;69635;50.964;6.948;2023-09-18T06:52:54;100090.50;;;21.00;100.00
79411;BME280;69635;50.964;6.948;2023-09-18T06:55:19;100094.00;;;21.02;100.00
79411;BME280;69635;50.964;6.948;2023-09-18T06:57:45;100106.56;;;21.01;100.00
79411;BME280;69635;50.964;6.948;2023-09-18T07:00:18;100111.25;;;21.13;100.00
79411;BME280;69635;50.964;6.948;2023-09-18T07:02:46;100116.69;;;21.29;100.00
79411;BME280;69635;50.964;6.948;2023-09-18T07:05:12;100111.81;;;21.36;100.00
79411;BME280;69635;50.964;6.948;2023-09-18T07:07:48;100111.81;;;21.36;100.00
79411;BME280;69635;50.964;6.948;2023-09-18T07:10:14;100113.81;;;21.48;100.00
79411;BME280;69635;50.964;6.948;2023-09-18T07:12:39;100115.41;;;21.52;100.00
79411;BME280;69635;50.964;6.948;2023-09-18T07:15:05;100118.50;;;21.60;100.00
79411;BME280;69635;50.964;6.948;2023-09-18T07:17:34;100131.75;;;21.80;100.00
79411;BME280;69635;50.964;6.948;2023-09-18T07:22:34;100137.41;;;21.91;100.00
79411;BME280;69635;50.964;6.948;2023-09-18T07:24:59;100129.66;;;22.00;100.00
79411;BME280;69635;50.964;6.948;2023-09-18T07:27:25;100137.22;;;22.09;100.00
79411;BME280;69635;50.964;6.948;2023-09-18T07:29:50;100133.63;;;22.09;100.00
79411;BME280;69635;50.964;6.948;2023-09-18T07:32:16;100141.91;;;22.06;100.00
79411;BME280;69635;50.964;6.948;2023-09-18T07:34:41;100139.81;;;21.95;100.00
79411;BME280;69635;50.964;6.948;2023-09-18T07:37:13;100149.56;;;21.98;100.00
79411;BME280;69635;50.964;6.948;2023-09-18T07:39:49;100156.50;;;22.02;100.00
79411;BME280;69635;50.964;6.948;2023-09-18T07:42:26;100168.91;;;22.04;100.00
79411;BME280;69635;50.964;6.948;2023-09-18T07:44:53;100180.56;;;22.05;100.00
79411;BME280;69635;50.964;6.948;2023-09-18T07:47:21;100182.13;;;22.09;100.00
79411;BME280;69635;50.964;6.948;2023-09-18T07:49:47;100182.13;;;22.09;100.00
79411;BME280;69635;50.964;6.948;2023-09-18T07:52:14;100176.94;;;22.06;100.00
79411;BME280;69635;50.964;6.948;2023-09-18T07:55:37;100164.84;;;21.97;100.00
79411;BME280;69635;50.964;6.948;2023-09-18T07:58:22;100167.88;;;22.07;100.00
79411;BME280;69635;50.964;6.948;2023-09-18T08:00:52;100173.06;;;22.10;100.00
79411;BME280;69635;50.964;6.948;2023-09-18T08:03:19;100178.56;;;22.08;100.00
79411;BME280;69635;50.964;6.948;2023-09-18T08:25:21;100187.25;;;22.29;100.00
79411;BME280;69635;50.964;6.948;2023-09-18T08:27:48;100192.84;;;22.40;100.00
79411;BME280;69635;50.964;6.948;2023-09-18T08:30:14;100194.16;;;22.49;100.00
79411;BME280;69635;50.964;6.948;2023-09-18T08:32:40;100193.47;;;22.45;100.00
79411;BME280;69635;50.964;6.948;2023-09-18T08:35:06;100192.25;;;22.35;100.00
79411;BME280;69635;50.964;6.948;2023-09-18T08:37:32;100189.56;;;22.35;100.00
79411;BME280;69635;50.964;6.948;2023-09-18T08:39:57;100190.00;;;22.43;100.00
79411;BME280;69635;50.964;6.948;2023-09-18T08:42:25;100192.69;;;22.43;100.00
79411;BME280;69635;50.964;6.948;2023-09-18T08:44:51;100196.06;;;22.47;100.00
79411;BME280;69635;50.964;6.948;2023-09-18T08:47:18;100195.53;;;22.40;100.00
79411;BME280;69635;50.964;6.948;2023-09-18T08:49:46;100211.38;;;22.46;100.00
79411;BME280;69635;50.964;6.948;2023-09-18T08:52:15;100222.44;;;22.57;100.00
79411;BME280;69635;50.964;6.948;2023-09-18T08:54:42;100211.56;;;22.59;100.00
79411;BME280;69635;50.964;6.948;2023-09-18T08:57:08;100202.63;;;22.72;100.00
79411;BME280;69635;50.964;6.948;2023-09-18T08:59:35;100200.16;;;22.83;100.00
79411;BME280;69635;50.964;6.948;2023-09-18T09:02:01;100192.28;;;22.94;100.00
79411;BME280;69635;50.964;6.948;2023-09-18T09:04:27;100194.81;;;23.11;100.00
79411;BME280;69635;50.964;6.948;2023-09-18T09:06:53;100189.94;;;23.18;100.00
79411;BME280;69635;50.964;6.948;2023-09-18T09:09:18;100193.78;;;23.14;100.00
79411;BME280;69635;50.964;6.948;2023-09-18T09:11:50;100196.47;;;23.28;100.00
79411;BME280;69635;50.964;6.948;2023-09-18T09:14:16;100189.81;;;23.19;100.00
79411;BME280;69635;50.964;6.948;2023-09-18T09:16:53;100199.53;;;23.08;100.00
79411;BME280;69635;50.964;6.948;2023-09-18T09:19:34;100191.53;;;23.06;100.00
79411;BME280;69635;50.964;6.948;2023-09-18T09:22:07;100210.16;;;23.11;100.00
79411;BME280;69635;50.964;6.948;2023-09-18T09:24:42;100211.97;;;23.10;100.00
79411;BME280;69635;50.964;6.948;2023-09-18T09:27:11;100205.22;;;23.03;100.00
79411;BME280;69635;50.964;6.948;2023-09-18T09:29:37;100209.00;;;23.15;100.00
79411;BME280;69635;50.964;6.948;2023-09-18T09:32:16;100201.97;;;23.27;100.00
79411;BME280;69635;50.964;6.948;2023-09-18T09:34:43;100192.28;;;23.38;100.00
79411;BME280;69635;50.964;6.948;2023-09-18T09:37:08;100183.63;;;23.47;100.00
79411;BME280;69635;50.964;6.948;2023-09-18T09:39:34;100187.00;;;23.51;100.00
79411;BME280;69635;50.964;6.948;2023-09-18T09:42:01;100190.81;;;23.61;100.00
79411;BME280;69635;50.964;6.948;2023-09-18T09:44:29;100193.22;;;23.65;100.00
79411;BME280;69635;50.964;6.948;2023-09-18T09:46:59;100187.22;;;23.74;100.00
79411;BME280;69635;50.964;6.948;2023-09-18T09:49:24;100188.78;;;23.78;100.00
79411;BME280;69635;50.964;6.948;2023-09-18T09:51:53;100179.66;;;23.67;100.00
79411;BME280;69635;50.964;6.948;2023-09-18T09:54:39;100182.13;;;23.70;100.00
79411;BME280;69635;50.964;6.948;2023-09-18T09:57:06;100178.94;;;23.77;100.00
79411;BME280;69635;50.964;6.948;2023-09-18T09:59:31;100170.75;;;23.79;100.00
79411;BME280;69635;50.964;6.948;2023-09-18T10:02:00;100181.78;;;23.88;100.00
79411;BME280;69635;50.964;6.948;2023-09-18T10:04:27;100176.13;;;23.93;100.00
79411;BME280;69635;50.964;6.948;2023-09-18T10:07:05;100171.84;;;24.03;100.00
79411;BME280;69635;50.964;6.948;2023-09-18T10:09:34;100177.38;;;24.01;100.00
79411;BME280;69635;50.964;6.948;2023-09-18T10:12:00;100176.78;;;24.10;100.00
79411;BME280;69635;50.964;6.948;2023-09-18T10:14:31;100166.50;;;24.15;100.00
79411;BME280;69635;50.964;6.948;2023-09-18T10:16:59;100165.28;;;24.07;100.00
79411;BME280;69635;50.964;6.948;2023-09-18T10:22:11;100175.06;;;23.95;100.00
79411;BME280;69635;50.964;6.948;2023-09-18T10:24:41;100177.06;;;23.92;100.00
79411;BME280;69635;50.964;6.948;2023-09-18T10:27:12;100178.06;;;23.77;100.00
79411;BME280;69635;50.964;6.948;2023-09-18T10:29:41;100182.91;;;23.72;100.00
79411;BME280;69635;50.964;6.948;2023-09-18T10:32:07;100179.16;;;23.60;100.00
79411;BME280;69635;50.964;6.948;2023-09-18T10:34:34;100187.91;;;23.64;100.00
79411;BME280;69635;50.964;6.948;2023-09-18T10:37:01;100194.09;;;23.66;100.00
79411;BME280;69635;50.964;6.948;2023-09-18T10:39:35;100170.25;;;23.72;100.00
79411;BME280;69635;50.964;6.948;2023-09-18T10:42:02;100185.19;;;23.78;100.00
79411;BME280;69635;50.964;6.948;2023-09-18T10:44:29;100185.88;;;23.81;100.00
79411;BME280;69635;50.964;6.948;2023-09-18T10:46:57;100185.59;;;23.86;100.00
79411;BME280;69635;50.964;6.948;2023-09-18T10:49:24;100184.88;;;23.96;100.00
79411;BME280;69635;50.964;6.948;2023-09-18T10:51:53;100197.06;;;24.03;100.00
79411;BME280;69635;50.964;6.948;2023-09-18T10:54:29;100188.50;;;24.24;100.00
79411;BME280;69635;50.964;6.948;2023-09-18T10:56:56;100196.13;;;24.31;100.00
79411;BME280;69635;50.964;6.948;2023-09-18T10:59:22;100183.16;;;24.36;100.00
79411;BME280;69635;50.964;6.948;2023-09-18T11:01:48;100178.91;;;24.32;100.00
79411;BME280;69635;50.964;6.948;2023-09-18T11:04:18;100176.25;;;24.45;100.00
79411;BME280;69635;50.964;6.948;2023-09-18T11:09:20;100179.97;;;24.69;100.00
79411;BME280;69635;50.964;6.948;2023-09-18T11:11:46;100171.19;;;24.53;100.00
79411;BME280;69635;50.964;6.948;2023-09-18T11:14:14;100165.25;;;24.60;100.00
79411;BME280;69635;50.964;6.948;2023-09-18T11:16:40;100168.94;;;24.59;100.00
79411;BME280;69635;50.964;6.948;2023-09-18T11:21:34;100173.06;;;24.65;100.00
79411;BME280;69635;50.964;6.948;2023-09-18T11:24:02;100156.78;;;24.79;100.00
79411;BME280;69635;50.964;6.948;2023-09-18T11:26:35;100169.22;;;24.81;100.00
79411;BME280;69635;50.964;6.948;2023-09-18T11:29:03;100169.16;;;24.83;100.00
79411;BME280;69635;50.964;6.948;2023-09-18T11:31:49;100180.81;;;24.83;100.00
79411;BME280;69635;50.964;6.948;2023-09-18T11:34:29;100173.69;;;24.82;100.00
79411;BME280;69635;50.964;6.948;2023-09-18T11:37:02;100177.28;;;24.95;100.00
79411;BME280;69635;50.964;6.948;2023-09-18T11:39:43;100171.88;;;25.08;100.00
79411;BME280;69635;50.964;6.948;2023-09-18T11:42:18;100174.03;;;25.28;100.00
79411;BME280;69635;50.964;6.948;2023-09-18T11:44:44;100163.22;;;25.41;100.00
79411;BME280;69635;50.964;6.948;2023-09-18T11:47:15;100162.66;;;25.23;100.00
79411;BME280;69635;50.964;6.948;2023-09-18T11:49:52;100143.94;;;25.07;100.00
79411;BME280;69635;50.964;6.948;2023-09-18T11:52:21;100148.34;;;25.21;100.00
79411;BME280;69635;50.964;6.948;2023-09-18T11:54:47;100130.28;;;25.47;100.00
79411;BME280;69635;50.964;6.948;2023-09-18T11:57:13;100133.06;;;25.70;100.00
79411;BME280;69635;50.964;6.948;2023-09-18T11:59:42;100135.66;;;25.72;100.00
79411;BME280;69635;50.964;6.948;2023-09-18T12:02:09;100129.78;;;25.65;100.00
79411;BME280;69635;50.964;6.948;2023-09-18T12:04:36;100115.00;;;25.82;100.00
79411;BME280;69635;50.964;6.948;2023-09-18T12:07:05;100121.41;;;25.81;100.00
79411;BME280;69635;50.964;6.948;2023-09-18T12:09:32;100126.28;;;25.88;100.00
79411;BME280;69635;50.964;6.948;2023-09-18T12:12:01;100126.03;;;25.91;100.00
79411;BME280;69635;50.964;6.948;2023-09-18T12:14:32;100125.94;;;25.93;100.00
79411;BME280;69635;50.964;6.948;2023-09-18T12:17:02;100122.91;;;25.85;100.00
79411;BME280;69635;50.964;6.948;2023-09-18T12:19:31;100125.56;;;25.97;100.00
79411;BME280;69635;50.964;6.948;2023-09-18T12:21:59;100132.53;;;25.89;100.00
79411;BME280;69635;50.964;6.948;2023-09-18T12:24:25;100129.72;;;25.90;100.00
79411;BME280;69635;50.964;6.948;2023-09-18T12:26:52;100121.59;;;25.90;100.00
79411;BME280;69635;50.964;6.948;2023-09-18T12:29:18;100117.44;;;25.97;100.00
79411;BME280;69635;50.964;6.948;2023-09-18T12:31:43;100120.16;;;25.97;100.00
79411;BME280;69635;50.964;6.948;2023-09-18T12:34:15;100131.59;;;25.90;100.00
79411;BME280;69635;50.964;6.948;2023-09-18T12:36:43;100113.53;;;25.65;100.00
79411;BME280;69635;50.964;6.948;2023-09-18T12:39:12;100113.44;;;25.67;100.00
79411;BME280;69635;50.964;6.948;2023-09-18T12:41:38;100105.38;;;25.78;100.00
79411;BME280;69635;50.964;6.948;2023-09-18T12:44:05;100102.28;;;25.95;100.00
79411;BME280;69635;50.964;6.948;2023-09-18T12:46:31;100102.56;;;26.03;100.00
79411;BME280;69635;50.964;6.948;2023-09-18T12:48:58;100094.13;;;26.07;100.00
79411;BME280;69635;50.964;6.948;2023-09-18T12:51:30;100106.19;;;26.27;99.52
79411;BME280;69635;50.964;6.948;2023-09-18T12:54:00;100102.13;;;26.33;99.70
79411;BME280;69635;50.964;6.948;2023-09-18T12:56:26;100097.78;;;26.30;98.68
79411;BME280;69635;50.964;6.948;2023-09-18T12:58:51;100095.31;;;26.27;97.01
79411;BME280;69635;50.964;6.948;2023-09-18T13:01:17;100104.56;;;26.24;94.39
79411;BME280;69635;50.964;6.948;2023-09-18T13:03:44;100093.00;;;26.34;92.81
79411;BME280;69635;50.964;6.948;2023-09-18T13:06:19;100083.91;;;26.35;93.77
79411;BME280;69635;50.964;6.948;2023-09-18T13:08:45;100097.09;;;26.39;90.79
79411;BME280;69635;50.964;6.948;2023-09-18T13:11:11;100088.00;;;26.16;91.00
79411;BME280;69635;50.964;6.948;2023-09-18T13:13:39;100089.09;;;26.14;94.58
79411;BME280;69635;50.964;6.948;2023-09-18T13:16:06;100091.47;;;26.18;91.17
79411;BME280;69635;50.964;6.948;2023-09-18T13:18:34;100095.50;;;26.13;93.41
79411;BME280;69635;50.964;6.948;2023-09-18T13:20:59;100077.09;;;26.29;93.42